Strona główna
METAR-TAF:

METAR-TAF

Lotnisko :

Port lotniczy El Alto

La Paz, Boliwia

Szerokość geograficzna: 16-31S, Długość geograficzna: 068-11W, wysokość: 4058 m

Aktualna obserwacja pogody

Raport powstał 33 minut temu, godzina 18:00 UTC
Wiatr 11 kt od zachodnio-północny zachód, zmienny między zachodnio-południowy zachód i północ
Temperatura 14°C
Wilgotność 31%
Ciśnienie 1039 hPa
Widzialność 10 km lub więcej
Rozproszone chmury na wysokości 1700 ft

METAR: SLLP 251800Z 29011KT 250V350 9999 SCT017 14/M03 Q1039

czas: 14:33 (18:33 UTC)

Prognoza

Raport powstał 2 godziny i 33 minut temu, godzina 16:00 UTC
Prognoza ważna od 25 godzina 18 UTC do 26 godzina 18 UTC
Wiatr 12 kt od zachód
Widzialność 10 km lub więcej
Mało chmury na wysokości 1700 ft
Stopniowe zmiany
od 25 godzina 23 UTC do 26 godzina 01 UTC
Wiatr 6 kt od wschodnio-północny wschód
Stopniowe zmiany
od 26 godzina 12 UTC do 26 godzina 14 UTC
Wiatr 10 kt od zachód

TAF: SLLP 251600Z 2518/2618 27012KT 9999 FEW017 TX15/2519Z TNM01/2611Z BECMG 2523/2601 07006KT BECMG 2612/2614 27010KT

Obserwacja i prognoza pogody dla ponad 4000 lotnisk (raport METAR i TAF).

Dostępne stacje oznaczono żółtymi i czerwonymi punktami na mapie.

Najedź kursorem aby zobaczyć nazwę stacji.

Kliknij aby zobaczyć obserwacje i prognozy pogody.

Aby zmienić mapę: kliknij na zielony przycisk z czarnym krzyżykiem, aby powiększyć; na zielony przycisk z myślnikiem, aby pomniejszyć; na zielone strzałki, aby przejść do map sąsiednich.


METAR-TAF: